sensor_id;sensor_type;location;lat;lon;timestamp;P1;durP1;ratioP1;P2;durP2;ratioP2
73154;SDS011;66341;52.418;7.382;2023-06-22T00:01:23;1599.54;;;1019.34;;
73154;SDS011;66341;52.418;7.382;2023-06-22T00:03:49;1568.51;;;988.94;;
73154;SDS011;66341;52.418;7.382;2023-06-22T00:06:15;1543.28;;;961.61;;
73154;SDS011;66341;52.418;7.382;2023-06-22T00:08:40;1557.15;;;968.43;;
73154;SDS011;66341;52.418;7.382;2023-06-22T00:11:06;1537.71;;;970.09;;
73154;SDS011;66341;52.418;7.382;2023-06-22T00:13:32;1539.85;;;983.61;;
73154;SDS011;66341;52.418;7.382;2023-06-22T00:15:57;1542.74;;;970.77;;
73154;SDS011;66341;52.418;7.382;2023-06-22T00:18:23;1577.14;;;975.63;;
73154;SDS011;66341;52.418;7.382;2023-06-22T00:20:56;1567.60;;;970.70;;
73154;SDS011;66341;52.418;7.382;2023-06-22T00:23:24;1577.10;;;976.00;;
73154;SDS011;66341;52.418;7.382;2023-06-22T00:25:50;1560.69;;;967.60;;
73154;SDS011;66341;52.418;7.382;2023-06-22T00:28:15;1528.54;;;949.90;;
73154;SDS011;66341;52.418;7.382;2023-06-22T00:30:41;1550.77;;;962.11;;
73154;SDS011;66341;52.418;7.382;2023-06-22T00:33:06;1555.76;;;964.53;;
73154;SDS011;66341;52.418;7.382;2023-06-22T00:35:32;1533.17;;;954.79;;
73154;SDS011;66341;52.418;7.382;2023-06-22T00:37:59;1532.69;;;953.89;;
73154;SDS011;66341;52.418;7.382;2023-06-22T00:40:32;1562.14;;;968.57;;
73154;SDS011;66341;52.418;7.382;2023-06-22T00:42:58;1570.77;;;973.96;;
73154;SDS011;66341;52.418;7.382;2023-06-22T00:45:24;1556.14;;;966.00;;
73154;SDS011;66341;52.418;7.382;2023-06-22T00:47:51;1543.55;;;961.06;;
73154;SDS011;66341;52.418;7.382;2023-06-22T00:50:21;1535.17;;;955.95;;
73154;SDS011;66341;52.418;7.382;2023-06-22T00:52:51;1529.81;;;954.96;;
73154;SDS011;66341;52.418;7.382;2023-06-22T00:55:17;1535.84;;;958.62;;
73154;SDS011;66341;52.418;7.382;2023-06-22T00:57:45;1558.43;;;969.52;;
73154;SDS011;66341;52.418;7.382;2023-06-22T01:00:11;1543.55;;;963.95;;
73154;SDS011;66341;52.418;7.382;2023-06-22T01:02:42;1542.86;;;961.61;;
73154;SDS011;66341;52.418;7.382;2023-06-22T01:05:14;1508.44;;;945.29;;
73154;SDS011;66341;52.418;7.382;2023-06-22T01:07:44;1496.01;;;940.05;;
73154;SDS011;66341;52.418;7.382;2023-06-22T01:10:21;1525.71;;;955.27;;
73154;SDS011;66341;52.418;7.382;2023-06-22T01:12:52;1524.95;;;957.37;;
73154;SDS011;66341;52.418;7.382;2023-06-22T01:18:22;1488.27;;;936.40;;
73154;SDS011;66341;52.418;7.382;2023-06-22T01:20:55;1519.15;;;952.44;;
73154;SDS011;66341;52.418;7.382;2023-06-22T01:23:27;1509.22;;;947.56;;
73154;SDS011;66341;52.418;7.382;2023-06-22T01:31:12;1497.97;;;940.05;;
73154;SDS011;66341;52.418;7.382;2023-06-22T01:33:41;1541.76;;;962.19;;
73154;SDS011;66341;52.418;7.382;2023-06-22T01:36:07;1539.92;;;960.27;;
73154;SDS011;66341;52.418;7.382;2023-06-22T01:38:35;1530.52;;;954.97;;
73154;SDS011;66341;52.418;7.382;2023-06-22T01:41:02;1533.04;;;956.83;;
73154;SDS011;66341;52.418;7.382;2023-06-22T01:43:29;1556.75;;;967.88;;
73154;SDS011;66341;52.418;7.382;2023-06-22T01:45:56;1543.68;;;962.13;;
73154;SDS011;66341;52.418;7.382;2023-06-22T01:48:23;1567.54;;;975.66;;
73154;SDS011;66341;52.418;7.382;2023-06-22T01:50:51;1582.68;;;982.24;;
73154;SDS011;66341;52.418;7.382;2023-06-22T01:53:20;1551.91;;;968.98;;
73154;SDS011;66341;52.418;7.382;2023-06-22T01:55:45;1544.42;;;964.54;;
73154;SDS011;66341;52.418;7.382;2023-06-22T01:58:11;1555.36;;;971.27;;
73154;SDS011;66341;52.418;7.382;2023-06-22T02:00:38;1564.62;;;974.52;;
73154;SDS011;66341;52.418;7.382;2023-06-22T02:03:10;1551.02;;;969.98;;
73154;SDS011;66341;52.418;7.382;2023-06-22T02:05:39;1556.88;;;974.70;;
73154;SDS011;66341;52.418;7.382;2023-06-22T02:08:09;1594.50;;;992.08;;
73154;SDS011;66341;52.418;7.382;2023-06-22T02:10:37;1581.70;;;984.83;;
73154;SDS011;66341;52.418;7.382;2023-06-22T02:13:06;1576.02;;;981.68;;
73154;SDS011;66341;52.418;7.382;2023-06-22T02:15:34;1588.36;;;987.06;;
73154;SDS011;66341;52.418;7.382;2023-06-22T02:18:00;1615.73;;;999.78;;
73154;SDS011;66341;52.418;7.382;2023-06-22T02:20:26;1576.63;;;979.85;;
73154;SDS011;66341;52.418;7.382;2023-06-22T02:22:52;1616.89;;;1001.25;;
73154;SDS011;66341;52.418;7.382;2023-06-22T02:25:18;1590.43;;;987.77;;
73154;SDS011;66341;52.418;7.382;2023-06-22T02:27:45;1587.21;;;988.87;;
73154;SDS011;66341;52.418;7.382;2023-06-22T02:30:11;1569.18;;;978.29;;
73154;SDS011;66341;52.418;7.382;2023-06-22T02:32:37;1548.59;;;968.49;;
73154;SDS011;66341;52.418;7.382;2023-06-22T02:35:08;1566.59;;;978.70;;
73154;SDS011;66341;52.418;7.382;2023-06-22T02:37:37;1589.62;;;992.35;;
73154;SDS011;66341;52.418;7.382;2023-06-22T02:40:07;1572.57;;;983.80;;
73154;SDS011;66341;52.418;7.382;2023-06-22T02:42:34;1568.62;;;980.85;;
73154;SDS011;66341;52.418;7.382;2023-06-22T02:45:01;1563.04;;;976.94;;
73154;SDS011;66341;52.418;7.382;2023-06-22T02:47:26;1557.78;;;975.54;;
73154;SDS011;66341;52.418;7.382;2023-06-22T02:49:52;1575.58;;;985.90;;
73154;SDS011;66341;52.418;7.382;2023-06-22T02:52:18;1567.34;;;982.31;;
73154;SDS011;66341;52.418;7.382;2023-06-22T02:54:44;1575.40;;;984.82;;
73154;SDS011;66341;52.418;7.382;2023-06-22T02:57:13;1579.07;;;987.35;;
73154;SDS011;66341;52.418;7.382;2023-06-22T02:59:39;1566.94;;;980.90;;
73154;SDS011;66341;52.418;7.382;2023-06-22T03:02:06;1546.20;;;969.93;;
73154;SDS011;66341;52.418;7.382;2023-06-22T03:04:32;1597.73;;;996.41;;
73154;SDS011;66341;52.418;7.382;2023-06-22T03:06:58;1599.15;;;998.89;;
73154;SDS011;66341;52.418;7.382;2023-06-22T03:09:27;1543.98;;;969.15;;
73154;SDS011;66341;52.418;7.382;2023-06-22T03:11:53;1574.12;;;986.50;;
73154;SDS011;66341;52.418;7.382;2023-06-22T03:14:19;1598.32;;;998.45;;
73154;SDS011;66341;52.418;7.382;2023-06-22T03:16:44;1609.50;;;1003.28;;
73154;SDS011;66341;52.418;7.382;2023-06-22T03:19:10;1618.91;;;1006.91;;
73154;SDS011;66341;52.418;7.382;2023-06-22T03:21:36;1622.91;;;1010.41;;
73154;SDS011;66341;52.418;7.382;2023-06-22T03:24:04;1615.50;;;1006.43;;
73154;SDS011;66341;52.418;7.382;2023-06-22T03:26:29;1618.18;;;1006.37;;
73154;SDS011;66341;52.418;7.382;2023-06-22T03:28:55;1603.18;;;999.87;;
73154;SDS011;66341;52.418;7.382;2023-06-22T03:31:21;1604.96;;;1002.10;;
73154;SDS011;66341;52.418;7.382;2023-06-22T03:33:48;1632.21;;;1015.80;;
73154;SDS011;66341;52.418;7.382;2023-06-22T03:36:15;1660.21;;;1028.84;;
73154;SDS011;66341;52.418;7.382;2023-06-22T03:38:44;1637.05;;;1017.46;;
73154;SDS011;66341;52.418;7.382;2023-06-22T03:41:11;1607.16;;;1000.81;;
73154;SDS011;66341;52.418;7.382;2023-06-22T03:43:37;1637.94;;;1016.02;;
73154;SDS011;66341;52.418;7.382;2023-06-22T03:46:02;1626.39;;;1012.17;;
73154;SDS011;66341;52.418;7.382;2023-06-22T03:48:28;1643.44;;;1021.46;;
73154;SDS011;66341;52.418;7.382;2023-06-22T03:50:53;1602.71;;;1000.62;;
73154;SDS011;66341;52.418;7.382;2023-06-22T03:53:19;1649.35;;;1022.62;;
73154;SDS011;66341;52.418;7.382;2023-06-22T03:55:48;1632.51;;;1014.64;;
73154;SDS011;66341;52.418;7.382;2023-06-22T03:58:15;1633.33;;;1014.49;;
73154;SDS011;66341;52.418;7.382;2023-06-22T04:00:40;1633.11;;;1013.56;;
73154;SDS011;66341;52.418;7.382;2023-06-22T04:03:06;1623.80;;;1010.28;;
73154;SDS011;66341;52.418;7.382;2023-06-22T04:05:33;1657.33;;;1027.36;;
73154;SDS011;66341;52.418;7.382;2023-06-22T04:07:58;1639.62;;;1018.59;;
73154;SDS011;66341;52.418;7.382;2023-06-22T04:10:24;1654.07;;;1023.15;;
73154;SDS011;66341;52.418;7.382;2023-06-22T04:12:49;1620.88;;;1007.56;;
73154;SDS011;66341;52.418;7.382;2023-06-22T04:15:15;1622.87;;;1009.67;;
73154;SDS011;66341;52.418;7.382;2023-06-22T04:17:40;1656.62;;;1026.44;;
73154;SDS011;66341;52.418;7.382;2023-06-22T04:20:06;1651.62;;;1023.06;;
73154;SDS011;66341;52.418;7.382;2023-06-22T04:22:32;1603.39;;;1000.45;;
73154;SDS011;66341;52.418;7.382;2023-06-22T04:24:57;1638.21;;;1021.19;;
73154;SDS011;66341;52.418;7.382;2023-06-22T04:27:23;1658.32;;;1030.36;;
73154;SDS011;66341;52.418;7.382;2023-06-22T04:29:49;1654.69;;;1028.60;;
73154;SDS011;66341;52.418;7.382;2023-06-22T04:32:15;1613.96;;;1006.58;;
73154;SDS011;66341;52.418;7.382;2023-06-22T04:34:41;1637.94;;;1018.71;;
73154;SDS011;66341;52.418;7.382;2023-06-22T04:37:06;1656.82;;;1028.58;;
73154;SDS011;66341;52.418;7.382;2023-06-22T04:39:32;1614.35;;;1006.53;;
73154;SDS011;66341;52.418;7.382;2023-06-22T04:41:57;1668.25;;;1033.92;;
73154;SDS011;66341;52.418;7.382;2023-06-22T04:44:26;1618.44;;;1009.62;;
73154;SDS011;66341;52.418;7.382;2023-06-22T04:46:53;1639.16;;;1021.64;;
73154;SDS011;66341;52.418;7.382;2023-06-22T04:49:20;1609.69;;;1005.13;;
73154;SDS011;66341;52.418;7.382;2023-06-22T04:51:46;1616.68;;;1008.91;;
73154;SDS011;66341;52.418;7.382;2023-06-22T04:54:11;1615.58;;;1007.62;;
73154;SDS011;66341;52.418;7.382;2023-06-22T04:56:37;1574.74;;;987.84;;
73154;SDS011;66341;52.418;7.382;2023-06-22T04:59:06;1577.11;;;986.93;;
73154;SDS011;66341;52.418;7.382;2023-06-22T05:01:32;1570.19;;;982.95;;
73154;SDS011;66341;52.418;7.382;2023-06-22T05:03:57;1607.73;;;1003.04;;
73154;SDS011;66341;52.418;7.382;2023-06-22T05:06:26;1565.05;;;980.67;;
73154;SDS011;66341;52.418;7.382;2023-06-22T05:08:53;1580.64;;;989.73;;
73154;SDS011;66341;52.418;7.382;2023-06-22T05:11:26;1583.36;;;991.08;;
73154;SDS011;66341;52.418;7.382;2023-06-22T05:13:52;1585.46;;;993.55;;
73154;SDS011;66341;52.418;7.382;2023-06-22T05:16:18;1585.03;;;992.97;;
73154;SDS011;66341;52.418;7.382;2023-06-22T05:18:49;1575.23;;;989.13;;
73154;SDS011;66341;52.418;7.382;2023-06-22T05:21:15;1618.50;;;1008.66;;
73154;SDS011;66341;52.418;7.382;2023-06-22T05:23:41;1598.53;;;998.19;;
73154;SDS011;66341;52.418;7.382;2023-06-22T05:26:06;1590.40;;;996.48;;
73154;SDS011;66341;52.418;7.382;2023-06-22T05:28:34;1608.56;;;1005.61;;
73154;SDS011;66341;52.418;7.382;2023-06-22T05:31:00;1582.25;;;990.90;;
73154;SDS011;66341;52.418;7.382;2023-06-22T05:33:25;1573.77;;;985.54;;
73154;SDS011;66341;52.418;7.382;2023-06-22T05:35:51;1593.71;;;996.68;;
73154;SDS011;66341;52.418;7.382;2023-06-22T05:38:16;1583.92;;;991.70;;
73154;SDS011;66341;52.418;7.382;2023-06-22T05:40:42;1589.28;;;994.25;;
73154;SDS011;66341;52.418;7.382;2023-06-22T05:43:07;1590.47;;;993.38;;
73154;SDS011;66341;52.418;7.382;2023-06-22T05:45:33;1582.15;;;986.54;;
73154;SDS011;66341;52.418;7.382;2023-06-22T05:47:58;1608.28;;;998.95;;
73154;SDS011;66341;52.418;7.382;2023-06-22T05:50:24;1600.34;;;998.00;;
73154;SDS011;66341;52.418;7.382;2023-06-22T05:52:49;1587.83;;;989.71;;
73154;SDS011;66341;52.418;7.382;2023-06-22T05:55:15;1574.16;;;985.61;;
73154;SDS011;66341;52.418;7.382;2023-06-22T05:57:40;1598.00;;;1001.18;;
73154;SDS011;66341;52.418;7.382;2023-06-22T06:00:08;1558.61;;;978.95;;
73154;SDS011;66341;52.418;7.382;2023-06-22T06:02:37;1556.07;;;971.79;;
73154;SDS011;66341;52.418;7.382;2023-06-22T06:05:10;1606.11;;;998.43;;
73154;SDS011;66341;52.418;7.382;2023-06-22T06:07:36;1576.86;;;983.49;;
73154;SDS011;66341;52.418;7.382;2023-06-22T06:10:03;1566.66;;;977.29;;
73154;SDS011;66341;52.418;7.382;2023-06-22T06:12:30;1571.58;;;979.25;;
73154;SDS011;66341;52.418;7.382;2023-06-22T06:14:55;1592.39;;;992.80;;
73154;SDS011;66341;52.418;7.382;2023-06-22T06:17:22;1557.85;;;977.39;;
73154;SDS011;66341;52.418;7.382;2023-06-22T06:19:47;1550.66;;;970.95;;
73154;SDS011;66341;52.418;7.382;2023-06-22T06:22:13;1531.44;;;958.82;;
73154;SDS011;66341;52.418;7.382;2023-06-22T06:24:38;1568.28;;;974.62;;
73154;SDS011;66341;52.418;7.382;2023-06-22T06:27:04;1548.51;;;962.70;;
73154;SDS011;66341;52.418;7.382;2023-06-22T06:29:31;1564.02;;;969.13;;
73154;SDS011;66341;52.418;7.382;2023-06-22T06:31:57;1511.85;;;944.67;;
73154;SDS011;66341;52.418;7.382;2023-06-22T06:34:22;1509.96;;;943.77;;
73154;SDS011;66341;52.418;7.382;2023-06-22T06:36:48;1476.30;;;928.34;;
73154;SDS011;66341;52.418;7.382;2023-06-22T06:39:14;1530.72;;;954.47;;
73154;SDS011;66341;52.418;7.382;2023-06-22T06:41:41;1536.46;;;955.18;;
73154;SDS011;66341;52.418;7.382;2023-06-22T06:44:06;1525.17;;;951.19;;
73154;SDS011;66341;52.418;7.382;2023-06-22T06:46:32;1584.53;;;988.50;;
73154;SDS011;66341;52.418;7.382;2023-06-22T06:48:58;1564.59;;;971.35;;
73154;SDS011;66341;52.418;7.382;2023-06-22T06:51:23;1560.99;;;967.63;;
73154;SDS011;66341;52.418;7.382;2023-06-22T06:53:49;1598.20;;;986.51;;
73154;SDS011;66341;52.418;7.382;2023-06-22T06:56:14;1566.78;;;971.98;;
73154;SDS011;66341;52.418;7.382;2023-06-22T06:58:41;1588.57;;;991.70;;
73154;SDS011;66341;52.418;7.382;2023-06-22T07:01:07;1588.85;;;989.27;;
73154;SDS011;66341;52.418;7.382;2023-06-22T07:03:33;1544.10;;;966.15;;
73154;SDS011;66341;52.418;7.382;2023-06-22T07:05:59;1606.03;;;997.26;;
73154;SDS011;66341;52.418;7.382;2023-06-22T07:08:24;1598.49;;;996.54;;
73154;SDS011;66341;52.418;7.382;2023-06-22T07:10:51;1574.07;;;983.71;;
73154;SDS011;66341;52.418;7.382;2023-06-22T07:13:17;1581.32;;;978.24;;
73154;SDS011;66341;52.418;7.382;2023-06-22T07:15:43;1583.99;;;977.72;;
73154;SDS011;66341;52.418;7.382;2023-06-22T07:18:08;1549.53;;;959.87;;
73154;SDS011;66341;52.418;7.382;2023-06-22T07:20:34;1591.54;;;981.67;;
73154;SDS011;66341;52.418;7.382;2023-06-22T07:22:59;1589.92;;;981.39;;
73154;SDS011;66341;52.418;7.382;2023-06-22T07:25:25;1578.20;;;975.70;;
73154;SDS011;66341;52.418;7.382;2023-06-22T07:30:22;1513.50;;;939.18;;
73154;SDS011;66341;52.418;7.382;2023-06-22T07:32:48;1450.85;;;906.73;;
73154;SDS011;66341;52.418;7.382;2023-06-22T07:35:13;1476.37;;;919.28;;
73154;SDS011;66341;52.418;7.382;2023-06-22T07:37:41;1471.36;;;917.24;;
73154;SDS011;66341;52.418;7.382;2023-06-22T07:40:07;1469.96;;;916.66;;
73154;SDS011;66341;52.418;7.382;2023-06-22T07:42:33;1482.04;;;923.83;;
73154;SDS011;66341;52.418;7.382;2023-06-22T07:44:59;1476.47;;;919.83;;
73154;SDS011;66341;52.418;7.382;2023-06-22T07:47:25;1492.92;;;928.51;;
73154;SDS011;66341;52.418;7.382;2023-06-22T07:49:58;1455.39;;;909.29;;
73154;SDS011;66341;52.418;7.382;2023-06-22T07:52:26;1449.04;;;906.34;;
73154;SDS011;66341;52.418;7.382;2023-06-22T07:54:52;1456.87;;;908.65;;
73154;SDS011;66341;52.418;7.382;2023-06-22T07:57:17;1445.50;;;903.44;;
73154;SDS011;66341;52.418;7.382;2023-06-22T07:59:44;1425.21;;;893.16;;
73154;SDS011;66341;52.418;7.382;2023-06-22T08:02:09;1444.35;;;903.61;;
73154;SDS011;66341;52.418;7.382;2023-06-22T08:04:35;1503.51;;;932.13;;
73154;SDS011;66341;52.418;7.382;2023-06-22T08:07:01;1445.94;;;905.33;;
73154;SDS011;66341;52.418;7.382;2023-06-22T08:09:28;1433.00;;;899.20;;
73154;SDS011;66341;52.418;7.382;2023-06-22T08:11:54;1436.78;;;901.04;;
73154;SDS011;66341;52.418;7.382;2023-06-22T08:14:23;1443.16;;;904.60;;
73154;SDS011;66341;52.418;7.382;2023-06-22T08:16:49;1433.11;;;899.87;;
73154;SDS011;66341;52.418;7.382;2023-06-22T08:19:14;1433.51;;;900.77;;
73154;SDS011;66341;52.418;7.382;2023-06-22T08:21:40;1432.66;;;899.59;;
73154;SDS011;66341;52.418;7.382;2023-06-22T08:24:05;1440.24;;;903.33;;
73154;SDS011;66341;52.418;7.382;2023-06-22T08:26:32;1443.96;;;906.50;;
73154;SDS011;66341;52.418;7.382;2023-06-22T08:29:02;1451.33;;;910.21;;
73154;SDS011;66341;52.418;7.382;2023-06-22T08:31:27;1425.34;;;897.02;;
73154;SDS011;66341;52.418;7.382;2023-06-22T08:33:53;1417.20;;;894.31;;
73154;SDS011;66341;52.418;7.382;2023-06-22T08:36:18;1409.89;;;888.92;;
73154;SDS011;66341;52.418;7.382;2023-06-22T08:38:44;1408.51;;;890.05;;
73154;SDS011;66341;52.418;7.382;2023-06-22T08:41:10;1427.84;;;898.76;;
73154;SDS011;66341;52.418;7.382;2023-06-22T08:43:36;1415.42;;;893.55;;
73154;SDS011;66341;52.418;7.382;2023-06-22T08:46:01;1451.10;;;913.01;;
73154;SDS011;66341;52.418;7.382;2023-06-22T08:48:28;1407.17;;;889.71;;
73154;SDS011;66341;52.418;7.382;2023-06-22T08:50:54;1423.13;;;896.74;;
73154;SDS011;66341;52.418;7.382;2023-06-22T08:53:20;1458.34;;;914.76;;
73154;SDS011;66341;52.418;7.382;2023-06-22T08:55:46;1475.09;;;923.21;;
73154;SDS011;66341;52.418;7.382;2023-06-22T08:58:11;1433.96;;;902.42;;
73154;SDS011;66341;52.418;7.382;2023-06-22T09:00:37;1437.51;;;904.07;;
73154;SDS011;66341;52.418;7.382;2023-06-22T09:03:02;1445.41;;;908.46;;
73154;SDS011;66341;52.418;7.382;2023-06-22T09:05:28;1438.56;;;903.86;;
73154;SDS011;66341;52.418;7.382;2023-06-22T09:07:55;1419.26;;;893.73;;
73154;SDS011;66341;52.418;7.382;2023-06-22T09:10:21;1440.59;;;903.99;;
73154;SDS011;66341;52.418;7.382;2023-06-22T09:12:46;1424.66;;;896.40;;
73154;SDS011;66341;52.418;7.382;2023-06-22T09:15:12;1416.93;;;892.78;;
73154;SDS011;66341;52.418;7.382;2023-06-22T09:17:38;1457.00;;;912.27;;
73154;SDS011;66341;52.418;7.382;2023-06-22T09:20:04;1461.65;;;915.06;;
73154;SDS011;66341;52.418;7.382;2023-06-22T09:22:35;1436.19;;;902.73;;
73154;SDS011;66341;52.418;7.382;2023-06-22T09:25:01;1460.80;;;914.36;;
73154;SDS011;66341;52.418;7.382;2023-06-22T09:27:28;1449.59;;;909.37;;
73154;SDS011;66341;52.418;7.382;2023-06-22T09:29:53;1444.03;;;906.25;;
73154;SDS011;66341;52.418;7.382;2023-06-22T09:32:19;1400.23;;;884.99;;
73154;SDS011;66341;52.418;7.382;2023-06-22T09:34:44;1437.39;;;904.62;;
73154;SDS011;66341;52.418;7.382;2023-06-22T09:37:10;1464.02;;;917.11;;
73154;SDS011;66341;52.418;7.382;2023-06-22T09:39:35;1446.16;;;908.22;;
73154;SDS011;66341;52.418;7.382;2023-06-22T09:42:02;1464.92;;;917.58;;
73154;SDS011;66341;52.418;7.382;2023-06-22T09:44:28;1458.62;;;914.44;;
73154;SDS011;66341;52.418;7.382;2023-06-22T09:46:53;1445.31;;;909.68;;
73154;SDS011;66341;52.418;7.382;2023-06-22T09:49:19;1428.62;;;900.51;;
73154;SDS011;66341;52.418;7.382;2023-06-22T09:51:44;1435.73;;;905.51;;
73154;SDS011;66341;52.418;7.382;2023-06-22T09:54:10;1411.02;;;891.74;;
73154;SDS011;66341;52.418;7.382;2023-06-22T09:56:35;1443.67;;;907.67;;
73154;SDS011;66341;52.418;7.382;2023-06-22T09:59:02;1439.95;;;907.51;;
73154;SDS011;66341;52.418;7.382;2023-06-22T10:01:28;1475.57;;;930.66;;
73154;SDS011;66341;52.418;7.382;2023-06-22T10:03:54;1464.84;;;925.89;;
73154;SDS011;66341;52.418;7.382;2023-06-22T10:06:22;1469.99;;;930.72;;
73154;SDS011;66341;52.418;7.382;2023-06-22T10:08:50;1463.61;;;925.80;;
73154;SDS011;66341;52.418;7.382;2023-06-22T10:11:16;1477.36;;;931.92;;
73154;SDS011;66341;52.418;7.382;2023-06-22T10:13:41;1450.83;;;918.25;;
73154;SDS011;66341;52.418;7.382;2023-06-22T10:16:06;1437.81;;;911.68;;
73154;SDS011;66341;52.418;7.382;2023-06-22T10:18:32;1465.55;;;925.81;;
73154;SDS011;66341;52.418;7.382;2023-06-22T10:20:57;1462.08;;;923.16;;
73154;SDS011;66341;52.418;7.382;2023-06-22T10:23:23;1466.22;;;926.73;;
73154;SDS011;66341;52.418;7.382;2023-06-22T10:25:48;1437.94;;;911.55;;
73154;SDS011;66341;52.418;7.382;2023-06-22T10:28:14;1457.88;;;922.95;;
73154;SDS011;66341;52.418;7.382;2023-06-22T10:30:40;1449.03;;;916.96;;
73154;SDS011;66341;52.418;7.382;2023-06-22T10:33:10;1436.53;;;908.26;;
73154;SDS011;66341;52.418;7.382;2023-06-22T10:35:36;1380.42;;;880.90;;
73154;SDS011;66341;52.418;7.382;2023-06-22T10:38:05;1421.77;;;905.68;;
73154;SDS011;66341;52.418;7.382;2023-06-22T10:40:31;1448.66;;;915.82;;
73154;SDS011;66341;52.418;7.382;2023-06-22T10:42:58;1495.11;;;940.81;;
73154;SDS011;66341;52.418;7.382;2023-06-22T10:45:23;1438.44;;;913.09;;
73154;SDS011;66341;52.418;7.382;2023-06-22T10:47:49;1485.66;;;936.31;;
73154;SDS011;66341;52.418;7.382;2023-06-22T10:50:14;1432.69;;;909.99;;
73154;SDS011;66341;52.418;7.382;2023-06-22T10:52:40;1486.23;;;937.59;;
73154;SDS011;66341;52.418;7.382;2023-06-22T10:55:09;1473.63;;;931.62;;
73154;SDS011;66341;52.418;7.382;2023-06-22T10:57:36;1428.81;;;906.72;;
73154;SDS011;66341;52.418;7.382;2023-06-22T11:00:02;1418.79;;;901.14;;
73154;SDS011;66341;52.418;7.382;2023-06-22T11:02:31;1429.65;;;908.98;;
73154;SDS011;66341;52.418;7.382;2023-06-22T11:04:56;1429.12;;;909.05;;
73154;SDS011;66341;52.418;7.382;2023-06-22T11:07:25;1417.93;;;903.38;;
73154;SDS011;66341;52.418;7.382;2023-06-22T11:09:53;1403.70;;;895.66;;
73154;SDS011;66341;52.418;7.382;2023-06-22T11:12:19;1459.23;;;926.35;;
73154;SDS011;66341;52.418;7.382;2023-06-22T11:14:44;1459.70;;;924.79;;
73154;SDS011;66341;52.418;7.382;2023-06-22T11:17:10;1489.35;;;938.43;;
73154;SDS011;66341;52.418;7.382;2023-06-22T11:19:36;1468.28;;;929.26;;
73154;SDS011;66341;52.418;7.382;2023-06-22T11:22:02;1431.23;;;912.62;;
73154;SDS011;66341;52.418;7.382;2023-06-22T11:24:27;1442.23;;;919.75;;
73154;SDS011;66341;52.418;7.382;2023-06-22T11:26:53;1417.70;;;907.68;;
73154;SDS011;66341;52.418;7.382;2023-06-22T11:29:18;1421.51;;;906.78;;
73154;SDS011;66341;52.418;7.382;2023-06-22T11:31:44;1378.63;;;883.72;;
73154;SDS011;66341;52.418;7.382;2023-06-22T11:34:09;1467.73;;;929.57;;
73154;SDS011;66341;52.418;7.382;2023-06-22T11:36:35;1410.98;;;900.48;;
73154;SDS011;66341;52.418;7.382;2023-06-22T11:39:00;1402.85;;;896.39;;
73154;SDS011;66341;52.418;7.382;2023-06-22T11:41:26;1403.02;;;895.74;;
73154;SDS011;66341;52.418;7.382;2023-06-22T11:43:52;1377.80;;;882.79;;
73154;SDS011;66341;52.418;7.382;2023-06-22T11:46:17;1414.94;;;902.68;;
73154;SDS011;66341;52.418;7.382;2023-06-22T11:48:43;1415.21;;;903.17;;
73154;SDS011;66341;52.418;7.382;2023-06-22T11:51:08;1460.37;;;930.23;;
73154;SDS011;66341;52.418;7.382;2023-06-22T11:53:34;1438.26;;;913.13;;
73154;SDS011;66341;52.418;7.382;2023-06-22T11:56:00;1384.37;;;887.31;;
73154;SDS011;66341;52.418;7.382;2023-06-22T11:58:26;1528.79;;;976.75;;
73154;SDS011;66341;52.418;7.382;2023-06-22T12:00:52;1594.77;;;1007.65;;
73154;SDS011;66341;52.418;7.382;2023-06-22T12:03:18;1404.51;;;885.93;;
73154;SDS011;66341;52.418;7.382;2023-06-22T12:05:44;1312.51;;;852.96;;
73154;SDS011;66341;52.418;7.382;2023-06-22T12:08:09;1319.97;;;859.81;;
73154;SDS011;66341;52.418;7.382;2023-06-22T12:10:35;1342.78;;;858.57;;
73154;SDS011;66341;52.418;7.382;2023-06-22T12:13:01;1274.67;;;815.74;;
73154;SDS011;66341;52.418;7.382;2023-06-22T12:15:26;1255.31;;;807.00;;
73154;SDS011;66341;52.418;7.382;2023-06-22T12:17:52;1257.21;;;808.08;;
73154;SDS011;66341;52.418;7.382;2023-06-22T12:20:18;1275.05;;;818.86;;
73154;SDS011;66341;52.418;7.382;2023-06-22T12:22:44;1282.40;;;823.05;;
73154;SDS011;66341;52.418;7.382;2023-06-22T12:25:09;1269.30;;;815.30;;
73154;SDS011;66341;52.418;7.382;2023-06-22T12:27:36;1291.13;;;826.86;;
73154;SDS011;66341;52.418;7.382;2023-06-22T12:30:01;1255.35;;;808.02;;
73154;SDS011;66341;52.418;7.382;2023-06-22T12:32:28;1181.73;;;771.34;;
73154;SDS011;66341;52.418;7.382;2023-06-22T12:34:53;1265.37;;;815.05;;
73154;SDS011;66341;52.418;7.382;2023-06-22T12:37:19;1219.81;;;791.14;;
73154;SDS011;66341;52.418;7.382;2023-06-22T12:39:44;1273.25;;;824.29;;
73154;SDS011;66341;52.418;7.382;2023-06-22T12:42:10;1276.48;;;821.34;;
73154;SDS011;66341;52.418;7.382;2023-06-22T12:44:40;1290.09;;;825.76;;
73154;SDS011;66341;52.418;7.382;2023-06-22T12:47:06;1249.40;;;804.98;;
73154;SDS011;66341;52.418;7.382;2023-06-22T12:49:34;1246.26;;;800.89;;
73154;SDS011;66341;52.418;7.382;2023-06-22T12:52:00;1257.17;;;803.02;;
73154;SDS011;66341;52.418;7.382;2023-06-22T12:54:25;1259.30;;;806.61;;
73154;SDS011;66341;52.418;7.382;2023-06-22T12:56:51;1325.26;;;840.69;;
73154;SDS011;66341;52.418;7.382;2023-06-22T12:59:16;1303.41;;;826.70;;
73154;SDS011;66341;52.418;7.382;2023-06-22T13:01:45;1313.93;;;832.17;;
73154;SDS011;66341;52.418;7.382;2023-06-22T13:04:11;1350.78;;;850.09;;
73154;SDS011;66341;52.418;7.382;2023-06-22T13:06:40;1332.39;;;839.11;;
73154;SDS011;66341;52.418;7.382;2023-06-22T13:09:06;1321.82;;;835.15;;
73154;SDS011;66341;52.418;7.382;2023-06-22T13:11:32;1345.06;;;848.42;;
73154;SDS011;66341;52.418;7.382;2023-06-22T13:13:58;1358.38;;;854.60;;
73154;SDS011;66341;52.418;7.382;2023-06-22T13:16:23;1369.08;;;859.97;;
73154;SDS011;66341;52.418;7.382;2023-06-22T13:18:49;1326.29;;;838.41;;
73154;SDS011;66341;52.418;7.382;2023-06-22T13:21:14;1369.11;;;860.69;;
73154;SDS011;66341;52.418;7.382;2023-06-22T13:23:40;1328.86;;;840.29;;
73154;SDS011;66341;52.418;7.382;2023-06-22T13:26:05;1367.20;;;860.61;;
73154;SDS011;66341;52.418;7.382;2023-06-22T13:28:30;1350.86;;;850.32;;
73154;SDS011;66341;52.418;7.382;2023-06-22T13:30:56;1316.66;;;830.32;;
73154;SDS011;66341;52.418;7.382;2023-06-22T13:33:22;1346.59;;;844.00;;
73154;SDS011;66341;52.418;7.382;2023-06-22T13:35:47;1300.45;;;822.05;;
73154;SDS011;66341;52.418;7.382;2023-06-22T13:38:12;1319.04;;;831.63;;
73154;SDS011;66341;52.418;7.382;2023-06-22T13:40:38;1350.32;;;848.60;;
73154;SDS011;66341;52.418;7.382;2023-06-22T13:43:04;1321.90;;;832.49;;
73154;SDS011;66341;52.418;7.382;2023-06-22T13:45:29;1365.68;;;855.62;;
73154;SDS011;66341;52.418;7.382;2023-06-22T13:47:55;1365.98;;;855.48;;
73154;SDS011;66341;52.418;7.382;2023-06-22T13:50:21;1333.79;;;841.33;;